Weather at South Fork Ranch Airport

Public forecast

Using degrees Fahrenheit for public forecast. Weather courtesy of forecast.io.

Closest aviation weather report (METAR) to South Fork Ranch Airport

Report is more than 6 hours old.

Closest report is Friedman Memorial Airport, 35.8 nm (66.3 km) E.

2022/11/14 14:48 (retrieved 2 years ago)

KSUN 141448Z 30009KT 10SM SKC M12/M14 A3029

Closest aviation forecast (TAF) to South Fork Ranch Airport

Forecast is more than 12 hours old.

Closest forecast is Friedman Memorial Airport, 35.8 nm (66.3 km) E.

2023/02/22 18:27 (retrieved 1 year ago)

TAF KSUN 221725Z 2218/2324 15006KT 6SM -SN SCT015 OVC025 TEMPO 2218/2222 2SM -SN BR BKN015 OVC023 FM230400 32006KT P6SM VCSH SCT015 OVC025 FM231100 32006KT 5SM -SN BKN015 OVC023